Time;durP1;ratioP1;P1;durP2;ratioP2;P2;SDS_P1;SDS_P2;PMS_P1;PMS_P2;Temp;Humidity;BMP_temperature;BMP_pressure;BME280_temperature;BME280_humidity;BME280_pressure;Samples;Min_cycle;Max_cycle;Signal;HPM_P1;HPM_P2
2021/12/02 00:01:59;;;;;;;6.72;1.40;;;4.00;99.90;;;;;;5126901;28;20039;-65
2021/12/02 00:04:27;;;;;;;8.95;1.92;;;3.90;99.90;;;;;;5122638;27;20051;-64
2021/12/02 00:06:53;;;;;;;5.13;1.20;;;3.90;99.90;;;;;;5128114;28;20040;-64
2021/12/02 00:09:19;;;;;;;4.72;1.30;;;3.80;99.90;;;;;;5129352;28;20055;-64
2021/12/02 00:11:45;;;;;;;8.25;1.38;;;3.70;99.90;;;;;;5110711;28;20047;-65
2021/12/02 00:14:13;;;;;;;11.32;1.83;;;3.70;99.90;;;;;;5129475;28;20086;-65
2021/12/02 00:16:51;;;;;;;8.65;1.38;;;3.70;99.90;;;;;;5110164;28;20039;-65
2021/12/02 00:22:03;;;;;;;8.90;1.48;;;3.50;99.90;;;;;;5110042;28;20043;-65
2021/12/02 00:24:37;;;;;;;7.82;1.40;;;3.60;99.90;;;;;;5110254;28;20485;-65
2021/12/02 00:27:09;;;;;;;8.48;1.50;;;3.50;99.90;;;;;;5105405;28;20044;-65
2021/12/02 00:29:36;;;;;;;7.70;1.80;;;3.40;99.90;;;;;;5109795;28;20044;-65
2021/12/02 00:32:06;;;;;;;8.30;1.42;;;3.30;99.90;;;;;;5110166;28;20051;-65
2021/12/02 00:34:32;;;;;;;5.35;1.25;;;3.20;99.90;;;;;;5128045;28;20047;-64
2021/12/02 00:37:01;;;;;;;8.63;1.95;;;3.10;99.90;;;;;;5109498;28;20047;-65
2021/12/02 00:39:29;;;;;;;8.43;1.50;;;3.10;99.90;;;;;;5109322;28;20081;-65
2021/12/02 00:41:55;;;;;;;11.82;2.08;;;3.00;99.90;;;;;;5109593;28;20059;-65
2021/12/02 00:44:21;;;;;;;7.68;1.77;;;3.10;99.90;;;;;;5127964;28;20067;-65
2021/12/02 00:46:48;;;;;;;6.35;2.05;;;3.00;99.90;;;;;;5109047;28;20089;-65
2021/12/02 00:49:17;;;;;;;5.63;1.20;;;2.90;99.90;;;;;;5109831;28;20043;-65
2021/12/02 00:51:46;;;;;;;8.13;1.70;;;3.00;99.90;;;;;;5128425;28;20073;-64
2021/12/02 00:54:13;;;;;;;12.10;1.63;;;2.90;99.90;;;;;;5128452;28;20062;-65
2021/12/02 00:56:41;;;;;;;11.90;2.00;;;2.90;99.90;;;;;;5126939;28;20039;-64
2021/12/02 00:59:08;;;;;;;8.80;1.75;;;2.80;99.90;;;;;;5120931;28;20044;-65
2021/12/02 01:01:36;;;;;;;9.85;1.88;;;2.80;99.90;;;;;;5123787;28;20103;-65
2021/12/02 01:04:09;;;;;;;7.20;1.33;;;2.70;99.90;;;;;;5127262;28;20419;-65
2021/12/02 01:06:35;;;;;;;5.45;1.25;;;2.70;99.90;;;;;;5123055;28;20087;-65
2021/12/02 01:09:03;;;;;;;6.97;1.70;;;2.60;99.90;;;;;;5144101;27;20044;-65
2021/12/02 01:11:29;;;;;;;4.57;2.70;;;2.60;99.90;;;;;;5130130;27;20047;-65
2021/12/02 01:13:55;;;;;;;9.88;1.30;;;2.60;99.90;;;;;;5129509;27;20053;-65
2021/12/02 01:16:22;;;;;;;9.35;1.90;;;2.60;99.90;;;;;;5147551;27;20118;-64
2021/12/02 01:18:48;;;;;;;4.80;1.38;;;2.60;99.90;;;;;;5147575;27;20035;-65
2021/12/02 01:21:18;;;;;;;5.93;1.13;;;2.50;99.90;;;;;;5129897;27;20084;-65
2021/12/02 01:23:46;;;;;;;5.53;2.17;;;2.50;99.90;;;;;;5129777;27;20050;-65
2021/12/02 01:26:14;;;;;;;7.78;1.65;;;2.50;99.90;;;;;;5148145;27;20043;-65
2021/12/02 01:28:42;;;;;;;5.40;1.27;;;2.50;99.90;;;;;;5129002;27;20053;-65
2021/12/02 01:31:08;;;;;;;6.68;1.30;;;2.60;99.90;;;;;;5129087;27;20138;-65
2021/12/02 01:33:35;;;;;;;7.13;1.38;;;2.50;99.90;;;;;;5127315;27;20051;-64
2021/12/02 01:36:03;;;;;;;10.85;1.83;;;2.40;99.90;;;;;;5147164;27;20050;-65
2021/12/02 01:38:30;;;;;;;3.28;1.00;;;2.40;99.90;;;;;;5147063;27;20047;-65
2021/12/02 01:40:58;;;;;;;7.00;1.40;;;2.40;99.90;;;;;;5147404;27;20062;-64
2021/12/02 01:43:51;;;;;;;7.43;1.40;;;2.40;99.90;;;;;;5148133;27;20046;-64
2021/12/02 01:46:26;;;;;;;7.38;1.40;;;2.30;99.90;;;;;;5144103;27;20089;-65
2021/12/02 01:49:02;;;;;;;7.18;1.40;;;2.40;99.90;;;;;;5147444;27;20063;-65
2021/12/02 01:51:28;;;;;;;15.40;1.83;;;2.40;99.90;;;;;;5146752;27;20051;-64
2021/12/02 01:54:09;;;;;;;7.10;1.27;;;2.40;99.90;;;;;;5128761;27;20117;-64
2021/12/02 01:56:46;;;;;;;4.53;1.20;;;2.50;99.90;;;;;;5127868;27;20059;-64
2021/12/02 01:59:25;;;;;;;6.82;1.27;;;2.70;99.90;;;;;;5127289;27;20043;-65
2021/12/02 02:01:56;;;;;;;4.53;1.15;;;2.90;99.90;;;;;;5147270;27;20051;-64
2021/12/02 02:04:23;;;;;;;7.45;1.55;;;3.00;99.90;;;;;;5149438;27;20047;-65
2021/12/02 02:06:56;;;;;;;6.43;1.70;;;3.10;99.90;;;;;;5101307;28;20043;-64
2021/12/02 02:09:28;;;;;;;8.23;1.77;;;3.30;99.90;;;;;;5102354;28;20081;-64
2021/12/02 02:11:55;;;;;;;6.10;1.45;;;3.50;99.90;;;;;;5096886;28;20048;-64
2021/12/02 02:14:23;;;;;;;6.35;1.42;;;3.60;99.90;;;;;;5107038;28;20048;-65
2021/12/02 02:16:50;;;;;;;3.38;1.08;;;3.70;99.90;;;;;;5103355;28;20128;-64
2021/12/02 02:19:16;;;;;;;4.93;1.13;;;3.70;99.90;;;;;;5104298;28;20090;-64
2021/12/02 02:21:43;;;;;;;6.65;1.35;;;3.60;99.90;;;;;;5094413;28;20044;-64
2021/12/02 02:24:14;;;;;;;9.45;1.50;;;3.60;99.90;;;;;;5097336;28;20077;-64
2021/12/02 02:26:41;;;;;;;6.18;1.23;;;3.50;99.90;;;;;;5095388;28;20519;-64
2021/12/02 02:29:10;;;;;;;5.78;1.23;;;3.40;99.90;;;;;;5107862;28;20099;-65
2021/12/02 02:31:39;;;;;;;5.55;1.25;;;3.30;99.90;;;;;;5091102;28;20048;-64
2021/12/02 02:34:05;;;;;;;4.28;1.13;;;3.30;99.90;;;;;;5092987;28;20036;-64
2021/12/02 02:36:33;;;;;;;4.18;1.35;;;3.20;99.90;;;;;;5111684;28;20044;-64
2021/12/02 02:39:02;;;;;;;3.95;1.10;;;3.10;99.90;;;;;;5096790;28;20118;-65
2021/12/02 02:41:37;;;;;;;8.00;1.15;;;3.10;99.90;;;;;;5107144;28;20055;-65
2021/12/02 02:44:03;;;;;;;8.18;1.23;;;3.00;99.90;;;;;;5110565;28;20047;-64
2021/12/02 02:46:32;;;;;;;4.95;1.20;;;2.90;99.90;;;;;;5108842;28;20048;-65
2021/12/02 02:49:02;;;;;;;5.25;1.25;;;2.90;99.90;;;;;;5095678;28;20075;-64
2021/12/02 02:51:30;;;;;;;6.82;1.45;;;2.80;99.90;;;;;;5098102;28;20051;-65
2021/12/02 02:54:00;;;;;;;5.95;1.40;;;2.80;99.90;;;;;;5126153;28;20040;-64
2021/12/02 02:56:31;;;;;;;4.80;1.15;;;2.70;99.90;;;;;;5099792;28;20063;-65
2021/12/02 02:59:12;;;;;;;3.97;1.30;;;2.70;99.90;;;;;;5116391;28;20047;-65
2021/12/02 03:06:53;;;;;;;5.88;1.02;;;2.60;99.90;;;;;;5100889;28;20056;-64
2021/12/02 03:11:51;;;;;;;4.55;1.27;;;2.60;99.90;;;;;;5078147;28;20040;-64
2021/12/02 03:14:31;;;;;;;4.15;1.00;;;2.50;99.90;;;;;;5120836;28;20040;-64
2021/12/02 03:16:57;;;;;;;3.95;1.45;;;2.50;99.90;;;;;;5077186;28;20056;-64
2021/12/02 03:19:27;;;;;;;4.60;1.02;;;2.50;99.90;;;;;;5087587;28;20055;-64
2021/12/02 03:21:55;;;;;;;7.68;1.30;;;2.50;99.90;;;;;;5097609;28;20040;-64
2021/12/02 03:24:22;;;;;;;3.40;0.80;;;2.50;99.90;;;;;;5097102;28;20125;-64
2021/12/02 03:26:48;;;;;;;3.72;0.90;;;2.40;99.90;;;;;;5106355;28;20139;-64
2021/12/02 03:29:14;;;;;;;3.00;0.90;;;2.40;99.90;;;;;;5113264;28;20052;-65
2021/12/02 03:31:40;;;;;;;2.75;0.80;;;2.40;99.90;;;;;;5075479;28;20043;-64
2021/12/02 03:34:07;;;;;;;1.75;0.75;;;2.30;99.90;;;;;;5110205;28;20197;-64
2021/12/02 03:36:34;;;;;;;6.63;0.90;;;2.30;99.90;;;;;;5124709;28;20043;-65
2021/12/02 03:39:00;;;;;;;4.50;1.00;;;2.30;99.90;;;;;;5106086;28;20055;-65
2021/12/02 03:41:26;;;;;;;3.28;0.70;;;2.30;99.90;;;;;;5078046;28;20044;-65
2021/12/02 03:43:52;;;;;;;4.07;1.42;;;2.30;99.90;;;;;;5110029;28;20084;-65
2021/12/02 03:46:20;;;;;;;1.67;0.70;;;2.20;99.90;;;;;;5096637;28;20048;-65
2021/12/02 03:48:47;;;;;;;4.32;1.13;;;2.20;99.90;;;;;;5111276;28;20055;-65
2021/12/02 03:51:13;;;;;;;3.95;1.05;;;2.30;99.90;;;;;;5096715;28;20039;-65
2021/12/02 03:53:39;;;;;;;3.58;1.40;;;2.30;99.90;;;;;;5097665;28;20515;-65
2021/12/02 03:56:09;;;;;;;5.63;1.02;;;2.30;99.90;;;;;;5106812;28;20105;-65
2021/12/02 03:58:36;;;;;;;4.85;0.90;;;2.30;99.90;;;;;;5124627;28;20063;-65
2021/12/02 04:01:03;;;;;;;2.90;1.00;;;2.30;99.90;;;;;;5092494;28;20070;-65
2021/12/02 04:03:29;;;;;;;5.15;1.20;;;2.30;99.90;;;;;;5119800;28;20067;-65
2021/12/02 04:05:55;;;;;;;3.53;1.00;;;2.30;99.90;;;;;;5102651;28;20048;-65
2021/12/02 04:08:28;;;;;;;3.83;1.00;;;2.40;99.90;;;;;;5121076;28;20128;-65
2021/12/02 04:10:59;;;;;;;4.53;1.25;;;2.40;99.90;;;;;;5114372;28;20048;-65
2021/12/02 04:13:30;;;;;;;6.30;1.00;;;2.40;99.90;;;;;;5117518;28;20056;-65
2021/12/02 04:16:00;;;;;;;;;;;2.40;99.90;;;;;;5106893;28;20130;-65
2021/12/02 04:18:26;;;;;;;3.78;0.90;;;2.40;99.90;;;;;;5114520;28;19923;-65
2021/12/02 04:20:52;;;;;;;7.13;1.00;;;2.20;99.90;;;;;;5098130;28;20449;-65
2021/12/02 04:23:17;;;;;;;3.80;0.90;;;2.20;99.90;;;;;;5113795;28;20043;-65
2021/12/02 04:25:43;;;;;;;4.25;0.90;;;2.10;99.90;;;;;;5107025;28;20032;-65
2021/12/02 04:28:09;;;;;;;1.33;0.80;;;2.00;99.90;;;;;;5097831;28;20047;-65
2021/12/02 04:30:35;;;;;;;3.20;1.10;;;2.00;99.90;;;;;;5099195;28;20082;-65
2021/12/02 04:33:00;;;;;;;4.00;1.17;;;2.00;99.90;;;;;;5109278;28;20051;-65
2021/12/02 04:35:27;;;;;;;5.28;1.15;;;1.90;99.90;;;;;;5110440;28;20043;-65
2021/12/02 04:37:53;;;;;;;3.92;1.25;;;1.90;99.90;;;;;;5097228;28;20123;-65
2021/12/02 04:40:21;;;;;;;3.08;0.90;;;2.00;99.90;;;;;;5103675;28;20089;-65
2021/12/02 04:42:48;;;;;;;6.93;1.30;;;2.00;99.90;;;;;;5120915;28;20450;-65
2021/12/02 04:45:14;;;;;;;4.53;1.38;;;2.00;99.90;;;;;;5110196;28;20047;-65
2021/12/02 04:47:40;;;;;;;2.10;1.00;;;1.90;99.90;;;;;;5126985;28;20445;-65
2021/12/02 04:50:08;;;;;;;3.13;1.08;;;1.80;99.90;;;;;;5125848;28;20035;-65
2021/12/02 04:52:35;;;;;;;4.60;1.00;;;1.80;99.90;;;;;;5124774;28;20054;-65
2021/12/02 04:55:00;;;;;;;3.30;1.02;;;1.80;99.90;;;;;;5114447;27;20127;-65
2021/12/02 04:57:26;;;;;;;4.95;1.10;;;1.70;99.90;;;;;;5122011;28;20090;-65
2021/12/02 04:59:52;;;;;;;4.15;1.33;;;1.70;99.90;;;;;;5103064;28;20040;-65
2021/12/02 05:02:17;;;;;;;5.32;1.40;;;1.60;99.90;;;;;;5109832;28;20059;-65
2021/12/02 05:04:43;;;;;;;3.42;1.10;;;1.50;99.90;;;;;;5112538;27;20061;-65
2021/12/02 05:07:09;;;;;;;4.30;1.27;;;1.60;99.90;;;;;;5115755;28;20086;-65
2021/12/02 05:09:35;;;;;;;5.43;1.23;;;1.60;99.90;;;;;;5129596;27;20110;-65
2021/12/02 05:12:00;;;;;;;3.65;1.15;;;1.60;99.90;;;;;;5148872;27;20506;-65
2021/12/02 05:14:26;;;;;;;3.20;1.17;;;1.70;99.90;;;;;;5128294;27;20047;-65
2021/12/02 05:16:52;;;;;;;5.10;1.50;;;1.60;99.90;;;;;;5147035;27;20043;-65
2021/12/02 05:19:18;;;;;;;6.97;1.67;;;1.60;99.90;;;;;;5147660;27;20053;-65
2021/12/02 05:21:44;;;;;;;3.80;1.40;;;1.60;99.90;;;;;;5130191;27;20063;-65
2021/12/02 05:24:09;;;;;;;8.70;1.50;;;1.60;99.90;;;;;;5128983;27;20574;-65
2021/12/02 05:26:35;;;;;;;8.65;1.40;;;1.60;99.90;;;;;;5111927;27;20106;-65
2021/12/02 05:29:02;;;;;;;7.15;1.70;;;1.70;99.90;;;;;;5147431;27;20031;-65
2021/12/02 05:31:28;;;;;;;4.85;1.65;;;1.70;99.90;;;;;;5129061;27;20130;-65
2021/12/02 05:33:54;;;;;;;5.72;1.67;;;1.80;99.90;;;;;;5127543;27;20039;-65
2021/12/02 05:36:20;;;;;;;4.25;1.40;;;1.80;99.90;;;;;;5129833;27;20039;-65
2021/12/02 05:38:46;;;;;;;4.05;1.50;;;1.80;99.90;;;;;;5146081;27;20042;-66
2021/12/02 05:41:15;;;;;;;3.55;1.13;;;1.90;99.90;;;;;;5096785;27;20047;-65
2021/12/02 05:43:41;;;;;;;2.38;1.00;;;1.90;99.90;;;;;;5126145;27;20043;-65
2021/12/02 05:46:07;;;;;;;3.03;1.10;;;2.00;99.90;;;;;;5127075;27;20031;-65
2021/12/02 05:48:33;;;;;;;3.13;1.10;;;2.10;99.90;;;;;;5141514;27;20406;-65
2021/12/02 05:50:59;;;;;;;1.42;0.93;;;2.10;99.90;;;;;;5094737;27;20069;-69
2021/12/02 05:53:25;;;;;;;3.15;1.10;;;2.20;99.90;;;;;;5087244;27;20054;-62
2021/12/02 05:55:50;;;;;;;2.45;1.23;;;2.30;99.90;;;;;;5117079;27;20051;-62
2021/12/02 05:58:16;;;;;;;2.97;1.20;;;2.40;99.90;;;;;;5100655;27;20192;-62
2021/12/02 06:00:42;;;;;;;4.70;0.95;;;2.30;99.90;;;;;;5111215;27;20527;-62
2021/12/02 06:03:08;;;;;;;2.45;0.80;;;2.20;99.90;;;;;;5086896;27;20047;-62
2021/12/02 06:05:34;;;;;;;1.40;0.85;;;2.20;99.90;;;;;;5110374;27;20114;-64
2021/12/02 06:08:03;;;;;;;2.30;1.17;;;2.20;99.90;;;;;;5120232;27;20073;-64
2021/12/02 06:10:29;;;;;;;1.13;0.60;;;2.20;99.90;;;;;;5108279;27;20078;-63
2021/12/02 06:12:55;;;;;;;5.45;1.55;;;2.20;99.90;;;;;;5131969;27;20054;-64
2021/12/02 06:15:21;;;;;;;3.42;0.80;;;2.20;99.90;;;;;;5127178;27;20073;-62
2021/12/02 06:17:47;;;;;;;3.42;1.00;;;2.20;99.90;;;;;;5135745;27;20491;-63
2021/12/02 06:20:15;;;;;;;4.57;0.93;;;2.10;99.90;;;;;;5127483;27;20046;-64
2021/12/02 06:22:41;;;;;;;2.70;1.00;;;2.10;99.90;;;;;;5138410;27;20031;-64
2021/12/02 06:27:47;;;;;;;2.35;0.85;;;1.90;99.90;;;;;;5106232;27;20055;-64
2021/12/02 06:30:16;;;;;;;4.40;0.90;;;1.80;99.90;;;;;;5119635;27;20051;-64
2021/12/02 06:32:42;;;;;;;1.83;0.70;;;1.70;99.90;;;;;;5120485;27;20050;-63
2021/12/02 06:35:09;;;;;;;2.58;0.90;;;1.70;99.90;;;;;;5128080;27;20043;-63
2021/12/02 06:37:36;;;;;;;1.00;0.90;;;1.60;99.90;;;;;;5118529;27;20051;-63
2021/12/02 06:40:02;;;;;;;3.17;0.88;;;1.60;99.90;;;;;;5093336;27;20047;-64
2021/12/02 06:42:27;;;;;;;1.80;0.85;;;1.50;99.90;;;;;;5118151;27;20058;-63
2021/12/02 06:44:53;;;;;;;0.77;0.70;;;1.50;99.90;;;;;;5109425;27;20047;-67
2021/12/02 06:47:24;;;;;;;1.25;0.90;;;1.50;99.90;;;;;;5106158;27;20044;-63
2021/12/02 06:49:50;;;;;;;1.88;0.90;;;1.50;99.90;;;;;;5102415;27;20035;-63
2021/12/02 06:52:16;;;;;;;0.88;0.80;;;1.50;99.90;;;;;;5086106;27;20047;-63
2021/12/02 06:54:41;;;;;;;3.53;1.25;;;1.50;99.90;;;;;;5125701;27;20112;-63
2021/12/02 06:57:07;;;;;;;2.15;0.85;;;1.60;99.90;;;;;;5117984;27;20137;-63
2021/12/02 06:59:33;;;;;;;1.45;0.80;;;1.60;99.90;;;;;;5116071;27;20043;-64
2021/12/02 07:01:59;;;;;;;3.53;1.63;;;1.60;99.90;;;;;;5114715;27;20535;-63
2021/12/02 07:04:25;;;;;;;2.47;1.08;;;1.60;99.90;;;;;;5118127;27;20185;-63
2021/12/02 07:06:50;;;;;;;2.20;1.10;;;1.60;99.90;;;;;;5107139;27;20039;-64
2021/12/02 07:09:17;;;;;;;1.65;0.98;;;1.60;99.90;;;;;;5135785;27;20047;-63
2021/12/02 07:11:43;;;;;;;2.13;1.40;;;1.50;99.90;;;;;;5124370;27;20062;-63
2021/12/02 07:14:13;;;;;;;2.28;1.00;;;1.50;99.90;;;;;;5136903;27;20046;-63
2021/12/02 07:16:39;;;;;;;;;;;1.50;99.90;;;;;;5111496;27;20081;-63
2021/12/02 07:19:07;;;;;;;4.32;1.30;;;1.50;99.90;;;;;;5133670;27;20026;-63
2021/12/02 07:21:38;;;;;;;2.55;1.23;;;1.50;99.90;;;;;;5113725;27;20055;-63
2021/12/02 07:24:05;;;;;;;3.05;1.30;;;1.50;99.90;;;;;;5111937;28;20051;-63
2021/12/02 07:26:34;;;;;;;4.50;1.33;;;1.50;99.90;;;;;;5117671;28;20109;-65
2021/12/02 07:29:01;;;;;;;4.47;1.60;;;1.50;99.90;;;;;;5135375;28;20043;-62
2021/12/02 07:31:30;;;;;;;4.78;1.60;;;1.50;99.90;;;;;;5107261;28;20061;-66
2021/12/02 07:33:57;;;;;;;3.03;1.35;;;1.50;99.90;;;;;;5118243;28;20055;-66
2021/12/02 07:36:24;;;;;;;2.85;1.55;;;1.60;99.90;;;;;;5096741;28;20127;-65
2021/12/02 07:38:50;;;;;;;4.43;1.50;;;1.60;99.90;;;;;;5135166;28;20035;-62
2021/12/02 07:41:16;;;;;;;5.93;1.52;;;1.60;99.90;;;;;;5093093;28;20108;-63
2021/12/02 07:43:43;;;;;;;4.93;1.55;;;1.60;99.90;;;;;;5099438;28;20051;-63
2021/12/02 07:46:09;;;;;;;3.90;1.38;;;1.60;99.90;;;;;;5101295;28;20036;-63
2021/12/02 07:48:36;;;;;;;2.03;1.30;;;1.60;99.90;;;;;;5113655;28;20086;-63
2021/12/02 07:51:15;;;;;;;3.45;1.63;;;1.60;99.90;;;;;;5098676;28;20150;-63
2021/12/02 07:53:44;;;;;;;4.18;1.48;;;1.60;99.90;;;;;;5114236;28;20050;-63
2021/12/02 07:56:12;;;;;;;2.90;1.50;;;1.60;99.90;;;;;;5126419;28;20070;-63
2021/12/02 07:58:43;;;;;;;2.92;1.65;;;1.60;99.90;;;;;;5120198;28;20051;-63
2021/12/02 08:01:10;;;;;;;3.90;1.63;;;1.70;99.90;;;;;;5106811;28;20064;-63
2021/12/02 08:03:37;;;;;;;2.63;1.50;;;1.70;99.90;;;;;;5114549;28;20827;-63
2021/12/02 08:06:03;;;;;;;2.88;1.30;;;1.70;99.90;;;;;;5097867;28;20126;-63
2021/12/02 08:08:29;;;;;;;3.65;1.30;;;1.70;99.90;;;;;;5117061;27;20086;-63
2021/12/02 08:10:54;;;;;;;3.88;1.60;;;1.70;99.90;;;;;;5128548;27;20410;-63
2021/12/02 08:13:28;;;;;;;5.13;1.80;;;1.70;99.90;;;;;;5120233;27;20050;-63
2021/12/02 08:15:54;;;;;;;4.82;1.80;;;1.80;99.90;;;;;;5103890;28;20100;-63
2021/12/02 08:18:19;;;;;;;5.60;1.70;;;1.90;99.90;;;;;;5115887;27;20134;-62
2021/12/02 08:20:45;;;;;;;4.78;1.98;;;1.90;99.90;;;;;;5105839;28;20345;-63
2021/12/02 08:23:11;;;;;;;3.58;1.90;;;2.00;99.90;;;;;;5110242;28;20047;-63
2021/12/02 08:25:37;;;;;;;3.08;2.08;;;2.10;99.90;;;;;;5122371;27;20055;-63
2021/12/02 08:28:04;;;;;;;3.10;2.20;;;2.10;99.90;;;;;;5110461;27;20047;-63
2021/12/02 08:30:33;;;;;;;3.63;2.38;;;2.10;99.90;;;;;;5106357;27;20040;-63
2021/12/02 08:33:00;;;;;;;3.17;2.33;;;2.20;99.90;;;;;;5109562;27;20050;-63
2021/12/02 08:35:26;;;;;;;5.78;2.30;;;2.20;99.90;;;;;;5108984;27;20050;-63
2021/12/02 08:37:57;;;;;;;5.72;2.55;;;2.20;99.90;;;;;;5124928;27;20546;-63
2021/12/02 08:40:30;;;;;;;;;;;2.30;99.90;;;;;;5097246;28;20051;-63
2021/12/02 08:42:55;;;;;;;5.72;2.60;;;2.30;99.90;;;;;;5126691;27;20014;-63
2021/12/02 08:45:21;;;;;;;4.85;2.50;;;2.30;99.90;;;;;;5126109;27;20481;-63
2021/12/02 08:47:47;;;;;;;5.22;2.80;;;2.30;99.90;;;;;;5105403;27;20051;-63
2021/12/02 08:50:18;;;;;;;3.88;2.53;;;2.30;99.90;;;;;;5128454;27;20158;-63
2021/12/02 08:52:45;;;;;;;5.15;2.70;;;2.30;99.90;;;;;;5120368;27;20493;-63
2021/12/02 08:55:12;;;;;;;4.15;2.90;;;2.30;99.90;;;;;;5125930;27;20487;-63
2021/12/02 08:57:38;;;;;;;5.97;3.00;;;2.30;99.90;;;;;;5099492;28;20047;-63
2021/12/02 09:00:09;;;;;;;4.30;2.90;;;2.20;99.90;;;;;;5108129;27;20051;-63
2021/12/02 09:02:35;;;;;;;6.30;3.42;;;2.20;99.90;;;;;;5107748;28;20044;-63
2021/12/02 09:05:03;;;;;;;5.07;3.10;;;2.20;99.90;;;;;;5124097;27;20098;-64
2021/12/02 09:07:29;;;;;;;5.88;3.13;;;2.20;99.90;;;;;;5112674;27;20084;-63
2021/12/02 09:09:55;;;;;;;4.60;3.30;;;2.20;99.90;;;;;;5116234;27;20109;-63
2021/12/02 09:12:22;;;;;;;5.45;3.70;;;2.20;99.90;;;;;;5101653;27;20043;-63
2021/12/02 09:14:48;;;;;;;5.63;3.75;;;2.10;99.90;;;;;;5140844;27;20253;-63
2021/12/02 09:17:14;;;;;;;5.18;3.40;;;2.10;99.90;;;;;;5109433;27;20051;-63
2021/12/02 09:19:40;;;;;;;6.10;3.67;;;2.10;99.90;;;;;;5119855;27;20117;-63
2021/12/02 09:22:06;;;;;;;6.70;3.85;;;2.20;99.90;;;;;;5099248;27;20052;-63
2021/12/02 09:24:31;;;;;;;7.15;4.28;;;2.30;99.90;;;;;;5103379;27;20499;-63
2021/12/02 09:26:57;;;;;;;6.50;3.75;;;2.30;99.90;;;;;;5097808;28;20043;-63
2021/12/02 09:29:24;;;;;;;4.93;3.65;;;2.40;99.90;;;;;;5119621;27;20103;-63
2021/12/02 09:31:51;;;;;;;8.98;4.05;;;2.50;99.90;;;;;;5097889;27;20543;-63
2021/12/02 09:34:17;;;;;;;5.35;3.17;;;2.50;99.90;;;;;;5117784;27;20051;-63
2021/12/02 09:36:44;;;;;;;5.68;3.08;;;2.60;99.90;;;;;;5115123;27;20540;-63
2021/12/02 09:39:10;;;;;;;4.00;2.78;;;2.60;99.90;;;;;;5135036;27;20071;-63
2021/12/02 09:41:37;;;;;;;6.03;3.10;;;2.80;99.90;;;;;;5099035;27;20072;-63
2021/12/02 09:44:04;;;;;;;4.65;2.75;;;2.90;99.90;;;;;;5115407;27;20043;-63
2021/12/02 09:46:30;;;;;;;3.72;2.15;;;3.10;99.90;;;;;;5097155;28;20055;-63
2021/12/02 09:48:58;;;;;;;3.92;1.80;;;3.20;99.90;;;;;;5117048;27;20215;-63
2021/12/02 09:51:32;;;;;;;7.50;1.92;;;3.30;99.90;;;;;;5111380;27;20035;-63
2021/12/02 09:54:24;;;;;;;3.88;1.85;;;3.30;99.90;;;;;;5121280;27;20054;-63
2021/12/02 09:56:52;;;;;;;3.40;1.70;;;3.40;99.90;;;;;;5110077;27;20055;-63
2021/12/02 09:59:40;;;;;;;2.38;1.65;;;3.40;99.90;;;;;;5119063;27;20043;-63
2021/12/02 10:02:11;;;;;;;3.58;1.60;;;3.50;99.90;;;;;;5099815;28;20369;-63
2021/12/02 10:04:43;;;;;;;2.85;1.70;;;3.40;99.90;;;;;;5136785;27;20320;-64
2021/12/02 10:07:23;;;;;;;4.13;1.70;;;3.40;99.90;;;;;;5109927;27;20159;-63
2021/12/02 10:10:01;;;;;;;3.38;1.70;;;3.60;99.90;;;;;;5134131;27;20051;-63
2021/12/02 10:12:29;;;;;;;3.10;1.80;;;3.60;99.90;;;;;;5074399;28;20055;-63
2021/12/02 10:14:57;;;;;;;3.42;1.98;;;3.70;99.90;;;;;;5136044;27;20092;-63
2021/12/02 10:17:39;;;;;;;3.88;1.75;;;3.80;99.90;;;;;;5104997;27;20524;-63
2021/12/02 10:22:39;;;;;;;2.38;1.83;;;4.00;99.90;;;;;;5100861;27;20394;-63
2021/12/02 10:25:05;;;;;;;1.80;1.42;;;4.10;99.90;;;;;;5128939;27;20073;-63
2021/12/02 10:27:31;;;;;;;3.58;1.30;;;4.20;99.90;;;;;;5106189;27;20055;-63
2021/12/02 10:29:57;;;;;;;4.55;1.63;;;4.50;99.90;;;;;;5113706;27;20118;-63
2021/12/02 10:32:31;;;;;;;4.65;1.40;;;4.60;99.90;;;;;;5103481;27;20357;-63
2021/12/02 10:35:06;;;;;;;2.92;1.30;;;4.60;99.90;;;;;;5115739;27;20043;-63
2021/12/02 10:37:37;;;;;;;2.95;1.60;;;4.80;99.90;;;;;;5104652;27;20055;-63
2021/12/02 10:40:07;;;;;;;3.00;1.55;;;4.90;99.90;;;;;;5101519;27;20622;-63
2021/12/02 10:42:37;;;;;;;2.55;1.60;;;4.90;99.90;;;;;;5106290;27;20047;-63
2021/12/02 10:45:06;;;;;;;2.45;1.45;;;5.00;99.90;;;;;;5107156;27;20035;-63
2021/12/02 10:47:33;;;;;;;1.92;1.20;;;5.00;99.90;;;;;;5119393;27;20479;-63
2021/12/02 10:50:08;;;;;;;2.85;1.00;;;5.10;99.90;;;;;;5108578;27;20062;-63
2021/12/02 10:52:35;;;;;;;1.45;0.80;;;5.00;99.90;;;;;;5102277;27;20106;-63
2021/12/02 10:55:03;;;;;;;1.92;0.90;;;4.80;99.90;;;;;;5111588;27;20035;-63
2021/12/02 10:57:31;;;;;;;1.40;0.70;;;4.60;99.90;;;;;;5104796;27;20090;-63
2021/12/02 10:59:59;;;;;;;1.98;0.70;;;4.30;99.90;;;;;;5118215;27;20392;-63
2021/12/02 11:02:29;;;;;;;2.45;1.17;;;4.20;99.90;;;;;;5099674;27;20138;-63
2021/12/02 11:05:01;;;;;;;;;;;3.90;99.90;;;;;;5137835;27;20047;-63
2021/12/02 11:07:32;;;;;;;1.33;0.70;;;3.80;99.90;;;;;;5090724;28;19924;-63
2021/12/02 11:10:07;;;;;;;2.35;0.80;;;3.60;99.90;;;;;;5115739;28;20533;-63
2021/12/02 11:12:35;;;;;;;2.38;0.70;;;3.60;99.90;;;;;;5074134;28;20048;-63
2021/12/02 11:15:17;;;;;;;2.05;1.17;;;3.30;99.90;;;;;;5098474;28;20039;-63
2021/12/02 11:18:02;;;;;;;2.25;0.77;;;3.20;99.90;;;;;;5075598;28;20266;-63
2021/12/02 11:20:38;;;;;;;2.03;0.80;;;3.30;99.90;;;;;;5085544;28;20138;-64
2021/12/02 11:23:13;;;;;;;0.95;0.77;;;3.10;99.90;;;;;;5096251;28;20042;-63
2021/12/02 11:25:56;;;;;;;1.77;1.00;;;3.20;99.90;;;;;;5104583;28;20051;-63
2021/12/02 11:28:24;;;;;;;2.50;1.55;;;3.40;99.90;;;;;;5075784;28;20059;-63
2021/12/02 11:30:51;;;;;;;1.45;0.63;;;3.60;99.90;;;;;;5100658;28;20127;-63
2021/12/02 11:33:19;;;;;;;3.90;1.08;;;3.60;99.90;;;;;;5081643;28;20048;-63
2021/12/02 11:35:47;;;;;;;2.80;0.75;;;3.70;99.90;;;;;;5081559;28;20238;-63
2021/12/02 11:38:15;;;;;;;1.70;0.80;;;3.80;99.90;;;;;;5089931;28;20466;-63
2021/12/02 11:40:44;;;;;;;1.25;0.70;;;3.80;99.90;;;;;;5085819;28;20066;-63
2021/12/02 11:43:16;;;;;;;3.17;1.00;;;3.80;99.90;;;;;;5096999;28;20071;-63
2021/12/02 11:45:46;;;;;;;0.95;0.63;;;3.90;99.90;;;;;;5108275;28;20054;-63
2021/12/02 11:48:15;;;;;;;1.35;0.90;;;4.00;99.90;;;;;;5091303;28;20043;-63
2021/12/02 11:50:42;;;;;;;1.85;0.88;;;4.00;99.90;;;;;;5088101;28;20047;-64
2021/12/02 11:53:08;;;;;;;1.52;0.85;;;4.20;99.90;;;;;;5097549;28;20059;-63
2021/12/02 11:55:39;;;;;;;2.30;0.70;;;4.10;99.90;;;;;;5089580;28;20089;-64
2021/12/02 11:58:05;;;;;;;1.17;0.80;;;4.10;99.90;;;;;;5090524;28;20097;-63
2021/12/02 12:00:32;;;;;;;1.38;0.80;;;4.10;99.90;;;;;;5093912;28;20564;-64
2021/12/02 12:03:37;;;;;;;1.02;0.75;;;4.10;99.90;;;;;;5112092;28;20534;-63
2021/12/02 12:06:09;;;;;;;2.13;1.00;;;3.80;99.90;;;;;;5056626;28;20048;-63
2021/12/02 12:08:40;;;;;;;1.02;0.82;;;3.70;99.90;;;;;;5078111;28;20529;-63
2021/12/02 12:11:23;;;;;;;1.85;1.17;;;3.60;99.90;;;;;;5047192;28;20060;-63
2021/12/02 12:13:57;;;;;;;1.98;0.90;;;3.50;99.90;;;;;;5065255;28;20064;-63
2021/12/02 12:16:38;;;;;;;1.52;1.00;;;3.40;99.90;;;;;;5035665;28;20097;-64
2021/12/02 12:19:19;;;;;;;1.25;0.95;;;3.50;99.90;;;;;;5066354;28;20376;-63
2021/12/02 12:22:02;;;;;;;1.10;0.90;;;3.40;99.90;;;;;;5065004;28;20117;-64
2021/12/02 12:24:47;;;;;;;2.08;0.80;;;3.50;99.90;;;;;;5053301;28;20055;-63
2021/12/02 12:27:35;;;;;;;0.90;0.80;;;3.60;99.90;;;;;;5045780;28;20045;-63
2021/12/02 12:30:01;;;;;;;0.77;0.77;;;3.60;99.90;;;;;;5058071;28;20041;-63
2021/12/02 12:33:12;;;;;;;1.55;0.93;;;3.80;99.90;;;;;;5064285;28;20041;-62
2021/12/02 12:38:34;;;;;;;2.17;1.10;;;4.00;99.90;;;;;;5062770;28;20121;-62
2021/12/02 12:41:11;;;;;;;1.73;1.17;;;3.90;99.90;;;;;;5107385;27;20043;-63
2021/12/02 12:43:45;;;;;;;1.75;1.20;;;4.00;99.90;;;;;;5118992;27;20080;-64
2021/12/02 12:46:31;;;;;;;1.63;1.05;;;4.00;99.90;;;;;;5125476;27;20538;-62
2021/12/02 12:49:15;;;;;;;2.05;1.20;;;4.10;99.90;;;;;;5117229;27;20157;-62
2021/12/02 12:51:49;;;;;;;1.38;1.17;;;4.00;99.90;;;;;;5122306;27;20048;-62
2021/12/02 12:54:20;;;;;;;1.40;1.20;;;4.00;99.90;;;;;;5112184;27;20051;-62
2021/12/02 12:56:47;;;;;;;1.88;1.42;;;4.10;99.90;;;;;;5104158;28;20141;-62
2021/12/02 12:59:18;;;;;;;3.10;1.33;;;4.10;99.90;;;;;;5110074;27;20537;-62
2021/12/02 13:01:56;;;;;;;2.30;1.73;;;4.20;99.90;;;;;;5104609;27;20047;-62
2021/12/02 13:04:24;;;;;;;3.30;1.70;;;4.20;99.90;;;;;;5113696;27;20043;-62
2021/12/02 13:07:03;;;;;;;2.42;1.73;;;4.10;99.90;;;;;;5106671;27;20040;-62
2021/12/02 13:09:41;;;;;;;5.53;2.30;;;4.00;99.90;;;;;;5092079;28;20417;-62
2021/12/02 13:12:11;;;;;;;3.55;1.90;;;4.10;99.90;;;;;;5087475;28;20055;-62
2021/12/02 13:14:39;;;;;;;1.48;1.00;;;4.10;99.90;;;;;;5087143;28;20081;-63
2021/12/02 13:17:40;;;;;;;1.05;1.00;;;4.20;99.90;;;;;;5077631;28;20110;-62
2021/12/02 13:20:25;;;;;;;0.80;0.80;;;4.10;99.90;;;;;;5090307;28;20062;-62
2021/12/02 13:23:13;;;;;;;2.63;1.00;;;3.70;99.90;;;;;;5085713;28;20051;-62
2021/12/02 13:25:51;;;;;;;0.68;0.68;;;3.50;99.90;;;;;;5093058;28;20040;-62
2021/12/02 13:28:33;;;;;;;1.30;0.80;;;3.20;99.90;;;;;;5077702;28;20060;-62